sensor_id;sensor_type;location;lat;lon;timestamp;P1;durP1;ratioP1;P2;durP2;ratioP2
71965;SDS011;59836;52.132;5.442;2023-04-03T00:02:22;0.90;;;0.60;;
71965;SDS011;59836;52.132;5.442;2023-04-03T00:04:48;1.30;;;0.73;;
71965;SDS011;59836;52.132;5.442;2023-04-03T00:07:15;1.65;;;1.00;;
71965;SDS011;59836;52.132;5.442;2023-04-03T00:09:42;4.22;;;0.98;;
71965;SDS011;59836;52.132;5.442;2023-04-03T00:12:08;1.00;;;0.80;;
71965;SDS011;59836;52.132;5.442;2023-04-03T00:14:34;1.67;;;0.50;;
71965;SDS011;59836;52.132;5.442;2023-04-03T00:17:01;1.50;;;0.73;;
71965;SDS011;59836;52.132;5.442;2023-04-03T00:19:27;2.10;;;1.15;;
71965;SDS011;59836;52.132;5.442;2023-04-03T00:21:54;1.50;;;0.90;;
71965;SDS011;59836;52.132;5.442;2023-04-03T00:24:20;1.70;;;1.05;;
71965;SDS011;59836;52.132;5.442;2023-04-03T00:26:47;2.60;;;0.70;;
71965;SDS011;59836;52.132;5.442;2023-04-03T00:29:13;1.90;;;0.85;;
71965;SDS011;59836;52.132;5.442;2023-04-03T00:31:39;2.75;;;0.80;;
71965;SDS011;59836;52.132;5.442;2023-04-03T00:34:06;2.45;;;0.80;;
71965;SDS011;59836;52.132;5.442;2023-04-03T00:36:32;2.65;;;0.82;;
71965;SDS011;59836;52.132;5.442;2023-04-03T00:39:00;3.47;;;0.77;;
71965;SDS011;59836;52.132;5.442;2023-04-03T00:41:26;3.53;;;0.95;;
71965;SDS011;59836;52.132;5.442;2023-04-03T00:43:54;2.75;;;1.20;;
71965;SDS011;59836;52.132;5.442;2023-04-03T00:46:20;1.80;;;0.73;;
71965;SDS011;59836;52.132;5.442;2023-04-03T00:48:47;2.88;;;1.17;;
71965;SDS011;59836;52.132;5.442;2023-04-03T00:51:19;1.67;;;0.77;;
71965;SDS011;59836;52.132;5.442;2023-04-03T00:53:59;2.55;;;1.20;;
71965;SDS011;59836;52.132;5.442;2023-04-03T00:56:28;2.33;;;1.00;;
71965;SDS011;59836;52.132;5.442;2023-04-03T00:58:58;2.55;;;1.00;;
71965;SDS011;59836;52.132;5.442;2023-04-03T01:01:28;3.05;;;1.00;;
71965;SDS011;59836;52.132;5.442;2023-04-03T01:03:55;1.67;;;0.80;;
71965;SDS011;59836;52.132;5.442;2023-04-03T01:06:24;2.47;;;0.93;;
71965;SDS011;59836;52.132;5.442;2023-04-03T01:08:54;3.30;;;0.98;;
71965;SDS011;59836;52.132;5.442;2023-04-03T01:11:21;2.30;;;1.05;;
71965;SDS011;59836;52.132;5.442;2023-04-03T01:13:48;1.42;;;1.02;;
71965;SDS011;59836;52.132;5.442;2023-04-03T01:16:15;2.67;;;0.73;;
71965;SDS011;59836;52.132;5.442;2023-04-03T01:18:42;2.25;;;0.93;;
71965;SDS011;59836;52.132;5.442;2023-04-03T01:21:17;3.92;;;1.05;;
71965;SDS011;59836;52.132;5.442;2023-04-03T01:23:59;2.15;;;1.00;;
71965;SDS011;59836;52.132;5.442;2023-04-03T01:26:37;3.72;;;1.30;;
71965;SDS011;59836;52.132;5.442;2023-04-03T01:29:04;2.13;;;0.73;;
71965;SDS011;59836;52.132;5.442;2023-04-03T01:31:32;2.17;;;1.05;;
71965;SDS011;59836;52.132;5.442;2023-04-03T01:34:16;2.55;;;1.05;;
71965;SDS011;59836;52.132;5.442;2023-04-03T01:36:42;2.80;;;1.00;;
71965;SDS011;59836;52.132;5.442;2023-04-03T01:39:09;1.85;;;1.00;;
71965;SDS011;59836;52.132;5.442;2023-04-03T01:41:36;2.20;;;1.13;;
71965;SDS011;59836;52.132;5.442;2023-04-03T01:44:03;2.47;;;0.85;;
71965;SDS011;59836;52.132;5.442;2023-04-03T01:46:30;3.10;;;1.30;;
71965;SDS011;59836;52.132;5.442;2023-04-03T01:48:57;3.50;;;1.20;;
71965;SDS011;59836;52.132;5.442;2023-04-03T01:51:23;2.40;;;1.00;;
71965;SDS011;59836;52.132;5.442;2023-04-03T01:53:49;3.10;;;0.80;;
71965;SDS011;59836;52.132;5.442;2023-04-03T01:56:17;4.28;;;1.10;;
71965;SDS011;59836;52.132;5.442;2023-04-03T01:58:44;3.45;;;0.93;;
71965;SDS011;59836;52.132;5.442;2023-04-03T02:01:10;2.20;;;0.95;;
71965;SDS011;59836;52.132;5.442;2023-04-03T02:03:36;1.27;;;0.77;;
71965;SDS011;59836;52.132;5.442;2023-04-03T02:06:03;1.90;;;0.60;;
71965;SDS011;59836;52.132;5.442;2023-04-03T02:08:29;2.05;;;0.85;;
71965;SDS011;59836;52.132;5.442;2023-04-03T02:10:56;5.07;;;1.13;;
71965;SDS011;59836;52.132;5.442;2023-04-03T02:13:22;4.15;;;1.10;;
71965;SDS011;59836;52.132;5.442;2023-04-03T02:15:49;1.75;;;0.98;;
71965;SDS011;59836;52.132;5.442;2023-04-03T02:18:15;3.97;;;1.07;;
71965;SDS011;59836;52.132;5.442;2023-04-03T02:20:42;2.63;;;1.35;;
71965;SDS011;59836;52.132;5.442;2023-04-03T02:23:09;3.20;;;0.98;;
71965;SDS011;59836;52.132;5.442;2023-04-03T02:25:35;4.63;;;0.80;;
71965;SDS011;59836;52.132;5.442;2023-04-03T02:28:04;2.30;;;0.90;;
71965;SDS011;59836;52.132;5.442;2023-04-03T02:30:31;1.90;;;0.80;;
71965;SDS011;59836;52.132;5.442;2023-04-03T02:32:57;1.45;;;0.80;;
71965;SDS011;59836;52.132;5.442;2023-04-03T02:35:24;3.05;;;1.38;;
71965;SDS011;59836;52.132;5.442;2023-04-03T02:37:50;2.90;;;1.02;;
71965;SDS011;59836;52.132;5.442;2023-04-03T02:40:17;2.95;;;1.10;;
71965;SDS011;59836;52.132;5.442;2023-04-03T02:42:43;2.47;;;1.17;;
71965;SDS011;59836;52.132;5.442;2023-04-03T02:45:10;2.70;;;1.30;;
71965;SDS011;59836;52.132;5.442;2023-04-03T02:47:36;3.38;;;1.05;;
71965;SDS011;59836;52.132;5.442;2023-04-03T02:50:03;2.97;;;0.80;;
71965;SDS011;59836;52.132;5.442;2023-04-03T02:52:29;2.75;;;1.00;;
71965;SDS011;59836;52.132;5.442;2023-04-03T02:54:56;1.93;;;1.03;;
71965;SDS011;59836;52.132;5.442;2023-04-03T02:57:22;2.35;;;0.82;;
71965;SDS011;59836;52.132;5.442;2023-04-03T02:59:48;2.53;;;0.93;;
71965;SDS011;59836;52.132;5.442;2023-04-03T03:02:15;3.28;;;0.88;;
71965;SDS011;59836;52.132;5.442;2023-04-03T03:04:41;2.97;;;1.25;;
71965;SDS011;59836;52.132;5.442;2023-04-03T03:07:08;2.67;;;0.80;;
71965;SDS011;59836;52.132;5.442;2023-04-03T03:09:35;2.63;;;1.10;;
71965;SDS011;59836;52.132;5.442;2023-04-03T03:12:02;2.33;;;1.38;;
71965;SDS011;59836;52.132;5.442;2023-04-03T03:14:28;2.53;;;0.60;;
71965;SDS011;59836;52.132;5.442;2023-04-03T03:16:55;6.75;;;1.10;;
71965;SDS011;59836;52.132;5.442;2023-04-03T03:19:21;2.00;;;0.90;;
71965;SDS011;59836;52.132;5.442;2023-04-03T03:21:47;4.22;;;1.00;;
71965;SDS011;59836;52.132;5.442;2023-04-03T03:24:14;3.90;;;0.80;;
71965;SDS011;59836;52.132;5.442;2023-04-03T03:26:42;2.22;;;0.95;;
71965;SDS011;59836;52.132;5.442;2023-04-03T03:29:09;2.35;;;1.10;;
71965;SDS011;59836;52.132;5.442;2023-04-03T03:31:35;1.33;;;1.00;;
71965;SDS011;59836;52.132;5.442;2023-04-03T03:34:02;2.20;;;0.82;;
71965;SDS011;59836;52.132;5.442;2023-04-03T03:36:28;2.60;;;1.20;;
71965;SDS011;59836;52.132;5.442;2023-04-03T03:38:55;4.63;;;1.13;;
71965;SDS011;59836;52.132;5.442;2023-04-03T03:41:21;1.77;;;1.00;;
71965;SDS011;59836;52.132;5.442;2023-04-03T03:43:47;4.43;;;1.40;;
71965;SDS011;59836;52.132;5.442;2023-04-03T03:46:14;2.35;;;0.70;;
71965;SDS011;59836;52.132;5.442;2023-04-03T03:48:40;3.55;;;1.10;;
71965;SDS011;59836;52.132;5.442;2023-04-03T03:51:07;4.22;;;0.90;;
71965;SDS011;59836;52.132;5.442;2023-04-03T03:53:33;4.00;;;1.58;;
71965;SDS011;59836;52.132;5.442;2023-04-03T03:56:00;6.00;;;1.10;;
71965;SDS011;59836;52.132;5.442;2023-04-03T03:58:27;3.10;;;1.15;;
71965;SDS011;59836;52.132;5.442;2023-04-03T04:00:53;3.50;;;0.85;;
71965;SDS011;59836;52.132;5.442;2023-04-03T04:03:20;4.22;;;1.40;;
71965;SDS011;59836;52.132;5.442;2023-04-03T04:05:47;3.03;;;1.20;;
71965;SDS011;59836;52.132;5.442;2023-04-03T04:08:13;2.67;;;0.93;;
71965;SDS011;59836;52.132;5.442;2023-04-03T04:10:40;2.22;;;1.13;;
71965;SDS011;59836;52.132;5.442;2023-04-03T04:13:06;3.28;;;1.10;;
71965;SDS011;59836;52.132;5.442;2023-04-03T04:15:33;2.42;;;0.88;;
71965;SDS011;59836;52.132;5.442;2023-04-03T04:18:00;2.75;;;1.20;;
71965;SDS011;59836;52.132;5.442;2023-04-03T04:20:27;5.60;;;0.70;;
71965;SDS011;59836;52.132;5.442;2023-04-03T04:22:53;1.98;;;0.88;;
71965;SDS011;59836;52.132;5.442;2023-04-03T04:25:20;1.92;;;1.05;;
71965;SDS011;59836;52.132;5.442;2023-04-03T04:27:46;4.15;;;1.10;;
71965;SDS011;59836;52.132;5.442;2023-04-03T04:30:13;4.75;;;1.33;;
71965;SDS011;59836;52.132;5.442;2023-04-03T04:32:39;2.80;;;1.20;;
71965;SDS011;59836;52.132;5.442;2023-04-03T04:35:06;2.38;;;0.98;;
71965;SDS011;59836;52.132;5.442;2023-04-03T04:37:33;2.38;;;1.00;;
71965;SDS011;59836;52.132;5.442;2023-04-03T04:40:00;2.58;;;0.95;;
71965;SDS011;59836;52.132;5.442;2023-04-03T04:42:26;4.20;;;1.35;;
71965;SDS011;59836;52.132;5.442;2023-04-03T04:44:53;3.30;;;1.00;;
71965;SDS011;59836;52.132;5.442;2023-04-03T04:47:19;1.85;;;0.95;;
71965;SDS011;59836;52.132;5.442;2023-04-03T04:49:46;3.00;;;1.05;;
71965;SDS011;59836;52.132;5.442;2023-04-03T04:52:13;4.00;;;1.17;;
71965;SDS011;59836;52.132;5.442;2023-04-03T04:54:40;2.15;;;0.98;;
71965;SDS011;59836;52.132;5.442;2023-04-03T04:57:06;5.50;;;1.50;;
71965;SDS011;59836;52.132;5.442;2023-04-03T04:59:33;3.42;;;0.82;;
71965;SDS011;59836;52.132;5.442;2023-04-03T05:01:59;5.53;;;1.60;;
71965;SDS011;59836;52.132;5.442;2023-04-03T05:04:26;5.30;;;1.85;;
71965;SDS011;59836;52.132;5.442;2023-04-03T05:06:53;4.28;;;1.38;;
71965;SDS011;59836;52.132;5.442;2023-04-03T05:09:19;3.70;;;1.17;;
71965;SDS011;59836;52.132;5.442;2023-04-03T05:11:46;2.42;;;0.90;;
71965;SDS011;59836;52.132;5.442;2023-04-03T05:14:12;3.40;;;1.40;;
71965;SDS011;59836;52.132;5.442;2023-04-03T05:16:39;2.60;;;1.42;;
71965;SDS011;59836;52.132;5.442;2023-04-03T05:19:05;3.45;;;1.17;;
71965;SDS011;59836;52.132;5.442;2023-04-03T05:21:32;3.50;;;1.30;;
71965;SDS011;59836;52.132;5.442;2023-04-03T05:23:59;4.47;;;1.15;;
71965;SDS011;59836;52.132;5.442;2023-04-03T05:26:29;4.80;;;1.40;;
71965;SDS011;59836;52.132;5.442;2023-04-03T05:28:56;4.80;;;1.13;;
71965;SDS011;59836;52.132;5.442;2023-04-03T05:31:22;8.20;;;1.60;;
71965;SDS011;59836;52.132;5.442;2023-04-03T05:33:49;3.30;;;1.27;;
71965;SDS011;59836;52.132;5.442;2023-04-03T05:36:16;4.53;;;1.55;;
71965;SDS011;59836;52.132;5.442;2023-04-03T05:38:42;4.57;;;1.45;;
71965;SDS011;59836;52.132;5.442;2023-04-03T05:41:09;2.03;;;0.70;;
71965;SDS011;59836;52.132;5.442;2023-04-03T05:43:35;5.00;;;2.42;;
71965;SDS011;59836;52.132;5.442;2023-04-03T05:46:04;5.70;;;1.40;;
71965;SDS011;59836;52.132;5.442;2023-04-03T05:48:34;4.30;;;1.35;;
71965;SDS011;59836;52.132;5.442;2023-04-03T05:51:01;3.58;;;1.30;;
71965;SDS011;59836;52.132;5.442;2023-04-03T05:53:28;2.60;;;0.70;;
71965;SDS011;59836;52.132;5.442;2023-04-03T05:55:57;4.85;;;1.27;;
71965;SDS011;59836;52.132;5.442;2023-04-03T05:58:23;4.03;;;1.20;;
71965;SDS011;59836;52.132;5.442;2023-04-03T06:00:50;3.47;;;1.40;;
71965;SDS011;59836;52.132;5.442;2023-04-03T06:03:16;4.47;;;1.23;;
71965;SDS011;59836;52.132;5.442;2023-04-03T06:05:43;6.10;;;1.30;;
71965;SDS011;59836;52.132;5.442;2023-04-03T06:08:10;1.90;;;1.10;;
71965;SDS011;59836;52.132;5.442;2023-04-03T06:10:36;5.20;;;1.30;;
71965;SDS011;59836;52.132;5.442;2023-04-03T06:13:14;2.47;;;0.77;;
71965;SDS011;59836;52.132;5.442;2023-04-03T06:15:50;3.33;;;0.93;;
71965;SDS011;59836;52.132;5.442;2023-04-03T06:18:19;3.03;;;1.10;;
71965;SDS011;59836;52.132;5.442;2023-04-03T06:20:45;4.07;;;1.08;;
71965;SDS011;59836;52.132;5.442;2023-04-03T06:23:12;1.70;;;0.80;;
71965;SDS011;59836;52.132;5.442;2023-04-03T06:25:46;2.88;;;1.00;;
71965;SDS011;59836;52.132;5.442;2023-04-03T06:30:58;3.42;;;1.17;;
71965;SDS011;59836;52.132;5.442;2023-04-03T06:33:30;4.40;;;1.10;;
71965;SDS011;59836;52.132;5.442;2023-04-03T06:36:05;3.03;;;1.20;;
71965;SDS011;59836;52.132;5.442;2023-04-03T06:38:32;2.30;;;1.08;;
71965;SDS011;59836;52.132;5.442;2023-04-03T06:40:59;2.90;;;1.33;;
71965;SDS011;59836;52.132;5.442;2023-04-03T06:43:26;4.47;;;0.98;;
71965;SDS011;59836;52.132;5.442;2023-04-03T06:45:52;3.70;;;1.83;;
71965;SDS011;59836;52.132;5.442;2023-04-03T06:48:19;3.50;;;1.50;;
71965;SDS011;59836;52.132;5.442;2023-04-03T06:50:45;2.30;;;1.30;;
71965;SDS011;59836;52.132;5.442;2023-04-03T06:53:12;2.65;;;1.30;;
71965;SDS011;59836;52.132;5.442;2023-04-03T06:55:38;2.95;;;1.10;;
71965;SDS011;59836;52.132;5.442;2023-04-03T06:58:06;2.80;;;1.60;;
71965;SDS011;59836;52.132;5.442;2023-04-03T07:00:33;3.77;;;1.03;;
71965;SDS011;59836;52.132;5.442;2023-04-03T07:02:59;4.55;;;1.33;;
71965;SDS011;59836;52.132;5.442;2023-04-03T07:05:26;3.65;;;1.52;;
71965;SDS011;59836;52.132;5.442;2023-04-03T07:07:52;1.80;;;1.02;;
71965;SDS011;59836;52.132;5.442;2023-04-03T07:10:19;3.25;;;0.93;;
71965;SDS011;59836;52.132;5.442;2023-04-03T07:12:46;5.63;;;1.50;;
71965;SDS011;59836;52.132;5.442;2023-04-03T07:15:13;3.25;;;1.13;;
71965;SDS011;59836;52.132;5.442;2023-04-03T07:17:40;3.55;;;1.27;;
71965;SDS011;59836;52.132;5.442;2023-04-03T07:20:07;3.33;;;1.02;;
71965;SDS011;59836;52.132;5.442;2023-04-03T07:22:34;2.67;;;1.13;;
71965;SDS011;59836;52.132;5.442;2023-04-03T07:25:00;5.30;;;1.43;;
71965;SDS011;59836;52.132;5.442;2023-04-03T07:27:27;3.25;;;0.85;;
71965;SDS011;59836;52.132;5.442;2023-04-03T07:29:53;4.60;;;0.95;;
71965;SDS011;59836;52.132;5.442;2023-04-03T07:32:22;4.10;;;0.98;;
71965;SDS011;59836;52.132;5.442;2023-04-03T07:34:48;2.78;;;1.30;;
71965;SDS011;59836;52.132;5.442;2023-04-03T07:37:16;5.13;;;0.93;;
71965;SDS011;59836;52.132;5.442;2023-04-03T07:39:44;3.65;;;0.90;;
71965;SDS011;59836;52.132;5.442;2023-04-03T07:42:11;2.45;;;1.10;;
71965;SDS011;59836;52.132;5.442;2023-04-03T07:44:39;5.45;;;1.10;;
71965;SDS011;59836;52.132;5.442;2023-04-03T07:47:06;4.35;;;1.20;;
71965;SDS011;59836;52.132;5.442;2023-04-03T07:49:32;2.83;;;1.07;;
71965;SDS011;59836;52.132;5.442;2023-04-03T07:52:00;4.00;;;1.23;;
71965;SDS011;59836;52.132;5.442;2023-04-03T07:54:26;7.22;;;1.70;;
71965;SDS011;59836;52.132;5.442;2023-04-03T07:56:53;3.88;;;1.20;;
71965;SDS011;59836;52.132;5.442;2023-04-03T07:59:19;3.83;;;1.00;;
71965;SDS011;59836;52.132;5.442;2023-04-03T08:01:46;3.13;;;1.00;;
71965;SDS011;59836;52.132;5.442;2023-04-03T08:04:12;3.00;;;0.90;;
71965;SDS011;59836;52.132;5.442;2023-04-03T08:06:39;4.88;;;1.23;;
71965;SDS011;59836;52.132;5.442;2023-04-03T08:09:12;3.03;;;0.90;;
71965;SDS011;59836;52.132;5.442;2023-04-03T08:11:41;2.47;;;1.20;;
71965;SDS011;59836;52.132;5.442;2023-04-03T08:14:07;2.73;;;0.80;;
71965;SDS011;59836;52.132;5.442;2023-04-03T08:16:34;2.20;;;0.75;;
71965;SDS011;59836;52.132;5.442;2023-04-03T08:19:00;4.05;;;1.20;;
71965;SDS011;59836;52.132;5.442;2023-04-03T08:21:27;2.65;;;1.05;;
71965;SDS011;59836;52.132;5.442;2023-04-03T08:23:54;3.78;;;0.80;;
71965;SDS011;59836;52.132;5.442;2023-04-03T08:26:21;1.63;;;0.60;;
71965;SDS011;59836;52.132;5.442;2023-04-03T08:28:48;4.45;;;1.13;;
71965;SDS011;59836;52.132;5.442;2023-04-03T08:31:15;5.53;;;1.23;;
71965;SDS011;59836;52.132;5.442;2023-04-03T08:33:46;2.38;;;0.95;;
71965;SDS011;59836;52.132;5.442;2023-04-03T08:36:20;3.70;;;1.02;;
71965;SDS011;59836;52.132;5.442;2023-04-03T08:38:49;3.23;;;0.70;;
71965;SDS011;59836;52.132;5.442;2023-04-03T08:41:22;1.17;;;0.50;;
71965;SDS011;59836;52.132;5.442;2023-04-03T08:49:53;2.58;;;0.93;;
71965;SDS011;59836;52.132;5.442;2023-04-03T08:55:25;3.08;;;0.60;;
71965;SDS011;59836;52.132;5.442;2023-04-03T08:58:01;3.05;;;0.63;;
71965;SDS011;59836;52.132;5.442;2023-04-03T09:00:53;0.90;;;0.40;;
71965;SDS011;59836;52.132;5.442;2023-04-03T09:03:23;1.40;;;0.45;;
71965;SDS011;59836;52.132;5.442;2023-04-03T09:05:53;1.93;;;0.50;;
71965;SDS011;59836;52.132;5.442;2023-04-03T09:13:49;1.08;;;0.50;;
71965;SDS011;59836;52.132;5.442;2023-04-03T09:19:24;2.70;;;0.60;;
71965;SDS011;59836;52.132;5.442;2023-04-03T09:24:49;3.05;;;0.65;;
71965;SDS011;59836;52.132;5.442;2023-04-03T09:27:26;0.73;;;0.40;;
71965;SDS011;59836;52.132;5.442;2023-04-03T09:29:53;1.02;;;0.57;;
71965;SDS011;59836;52.132;5.442;2023-04-03T09:35:00;1.25;;;0.50;;
71965;SDS011;59836;52.132;5.442;2023-04-03T09:37:46;2.03;;;0.40;;
71965;SDS011;59836;52.132;5.442;2023-04-03T09:45:56;0.93;;;0.30;;
71965;SDS011;59836;52.132;5.442;2023-04-03T09:48:52;0.50;;;0.30;;
71965;SDS011;59836;52.132;5.442;2023-04-03T09:51:34;0.90;;;0.40;;
71965;SDS011;59836;52.132;5.442;2023-04-03T09:54:01;0.70;;;0.30;;
71965;SDS011;59836;52.132;5.442;2023-04-03T09:56:53;0.98;;;0.40;;
71965;SDS011;59836;52.132;5.442;2023-04-03T09:59:21;0.30;;;0.20;;
71965;SDS011;59836;52.132;5.442;2023-04-03T10:01:56;1.00;;;0.30;;
71965;SDS011;59836;52.132;5.442;2023-04-03T10:04:25;0.70;;;0.40;;
71965;SDS011;59836;52.132;5.442;2023-04-03T10:06:52;0.90;;;0.38;;
71965;SDS011;59836;52.132;5.442;2023-04-03T10:09:24;0.75;;;0.45;;
71965;SDS011;59836;52.132;5.442;2023-04-03T10:14:33;2.13;;;0.40;;
71965;SDS011;59836;52.132;5.442;2023-04-03T10:17:03;0.93;;;0.43;;
71965;SDS011;59836;52.132;5.442;2023-04-03T10:19:48;1.05;;;0.30;;
71965;SDS011;59836;52.132;5.442;2023-04-03T10:22:37;0.80;;;0.30;;
71965;SDS011;59836;52.132;5.442;2023-04-03T10:31:34;2.05;;;0.50;;
71965;SDS011;59836;52.132;5.442;2023-04-03T10:34:22;1.73;;;0.30;;
71965;SDS011;59836;52.132;5.442;2023-04-03T10:39:59;0.80;;;0.43;;
71965;SDS011;59836;52.132;5.442;2023-04-03T10:45:26;0.70;;;0.40;;
71965;SDS011;59836;52.132;5.442;2023-04-03T10:48:11;0.70;;;0.30;;
71965;SDS011;59836;52.132;5.442;2023-04-03T10:50:53;0.98;;;0.30;;
71965;SDS011;59836;52.132;5.442;2023-04-03T11:01:31;2.03;;;0.38;;
71965;SDS011;59836;52.132;5.442;2023-04-03T11:04:04;1.48;;;0.38;;
71965;SDS011;59836;52.132;5.442;2023-04-03T11:06:52;1.37;;;0.70;;
71965;SDS011;59836;52.132;5.442;2023-04-03T11:09:27;1.83;;;0.30;;
71965;SDS011;59836;52.132;5.442;2023-04-03T11:12:02;1.35;;;0.50;;
71965;SDS011;59836;52.132;5.442;2023-04-03T11:14:32;0.63;;;0.20;;
71965;SDS011;59836;52.132;5.442;2023-04-03T11:17:11;1.40;;;0.60;;
71965;SDS011;59836;52.132;5.442;2023-04-03T11:20:06;1.00;;;0.30;;
71965;SDS011;59836;52.132;5.442;2023-04-03T11:22:43;1.45;;;0.30;;
71965;SDS011;59836;52.132;5.442;2023-04-03T11:25:20;1.88;;;0.75;;
71965;SDS011;59836;52.132;5.442;2023-04-03T11:27:51;1.35;;;0.50;;
71965;SDS011;59836;52.132;5.442;2023-04-03T11:30:28;1.17;;;0.43;;
71965;SDS011;59836;52.132;5.442;2023-04-03T11:33:03;1.87;;;0.50;;
71965;SDS011;59836;52.132;5.442;2023-04-03T11:35:43;2.17;;;0.50;;
71965;SDS011;59836;52.132;5.442;2023-04-03T11:38:23;3.03;;;0.73;;
71965;SDS011;59836;52.132;5.442;2023-04-03T11:40:53;0.50;;;0.40;;
71965;SDS011;59836;52.132;5.442;2023-04-03T11:43:24;1.70;;;0.75;;
71965;SDS011;59836;52.132;5.442;2023-04-03T11:45:54;0.70;;;0.40;;
71965;SDS011;59836;52.132;5.442;2023-04-03T11:50:59;1.45;;;0.40;;
71965;SDS011;59836;52.132;5.442;2023-04-03T11:53:36;1.27;;;0.50;;
71965;SDS011;59836;52.132;5.442;2023-04-03T12:04:21;1.63;;;0.52;;
71965;SDS011;59836;52.132;5.442;2023-04-03T12:06:52;1.23;;;0.57;;
71965;SDS011;59836;52.132;5.442;2023-04-03T12:15:18;2.35;;;0.50;;
71965;SDS011;59836;52.132;5.442;2023-04-03T12:17:45;2.20;;;0.68;;
71965;SDS011;59836;52.132;5.442;2023-04-03T12:25:50;1.20;;;0.60;;
71965;SDS011;59836;52.132;5.442;2023-04-03T12:28:17;0.93;;;0.50;;
71965;SDS011;59836;52.132;5.442;2023-04-03T12:30:44;1.95;;;0.60;;
71965;SDS011;59836;52.132;5.442;2023-04-03T12:36:23;1.02;;;0.50;;
71965;SDS011;59836;52.132;5.442;2023-04-03T12:39:30;2.50;;;0.70;;
71965;SDS011;59836;52.132;5.442;2023-04-03T12:42:12;1.40;;;0.40;;
71965;SDS011;59836;52.132;5.442;2023-04-03T12:45:10;1.83;;;0.68;;
71965;SDS011;59836;52.132;5.442;2023-04-03T12:47:43;1.00;;;0.32;;
71965;SDS011;59836;52.132;5.442;2023-04-03T12:50:19;1.08;;;0.40;;
71965;SDS011;59836;52.132;5.442;2023-04-03T12:52:59;2.40;;;0.80;;
71965;SDS011;59836;52.132;5.442;2023-04-03T12:55:29;0.98;;;0.40;;
71965;SDS011;59836;52.132;5.442;2023-04-03T12:57:55;2.65;;;0.80;;
71965;SDS011;59836;52.132;5.442;2023-04-03T13:00:29;1.30;;;0.60;;
71965;SDS011;59836;52.132;5.442;2023-04-03T13:03:00;1.33;;;0.60;;
71965;SDS011;59836;52.132;5.442;2023-04-03T13:05:29;1.50;;;0.60;;
71965;SDS011;59836;52.132;5.442;2023-04-03T13:08:00;0.82;;;0.55;;
71965;SDS011;59836;52.132;5.442;2023-04-03T13:10:29;1.30;;;0.70;;
71965;SDS011;59836;52.132;5.442;2023-04-03T13:12:57;2.10;;;0.70;;
71965;SDS011;59836;52.132;5.442;2023-04-03T13:15:46;1.48;;;0.50;;
71965;SDS011;59836;52.132;5.442;2023-04-03T13:18:32;1.90;;;0.60;;
71965;SDS011;59836;52.132;5.442;2023-04-03T13:23:48;1.85;;;0.60;;
71965;SDS011;59836;52.132;5.442;2023-04-03T13:26:27;1.42;;;0.40;;
71965;SDS011;59836;52.132;5.442;2023-04-03T13:28:57;0.98;;;0.60;;
71965;SDS011;59836;52.132;5.442;2023-04-03T13:31:29;1.70;;;0.40;;
71965;SDS011;59836;52.132;5.442;2023-04-03T13:34:02;1.38;;;0.70;;
71965;SDS011;59836;52.132;5.442;2023-04-03T13:36:55;1.95;;;0.50;;
71965;SDS011;59836;52.132;5.442;2023-04-03T13:39:25;2.53;;;0.60;;
71965;SDS011;59836;52.132;5.442;2023-04-03T13:41:57;2.90;;;0.40;;
71965;SDS011;59836;52.132;5.442;2023-04-03T13:44:47;1.53;;;0.50;;
71965;SDS011;59836;52.132;5.442;2023-04-03T13:47:18;3.03;;;0.60;;
71965;SDS011;59836;52.132;5.442;2023-04-03T13:52:28;1.65;;;0.47;;
71965;SDS011;59836;52.132;5.442;2023-04-03T13:54:58;1.35;;;0.70;;
71965;SDS011;59836;52.132;5.442;2023-04-03T13:57:30;1.87;;;0.40;;
71965;SDS011;59836;52.132;5.442;2023-04-03T13:59:57;2.03;;;0.70;;
71965;SDS011;59836;52.132;5.442;2023-04-03T14:02:31;1.23;;;0.60;;
71965;SDS011;59836;52.132;5.442;2023-04-03T14:05:00;1.90;;;0.60;;
71965;SDS011;59836;52.132;5.442;2023-04-03T14:10:18;1.57;;;0.40;;
71965;SDS011;59836;52.132;5.442;2023-04-03T14:12:45;1.58;;;0.60;;
71965;SDS011;59836;52.132;5.442;2023-04-03T14:15:16;1.52;;;0.50;;
71965;SDS011;59836;52.132;5.442;2023-04-03T14:17:46;1.65;;;0.52;;
71965;SDS011;59836;52.132;5.442;2023-04-03T14:20:16;1.80;;;0.88;;
71965;SDS011;59836;52.132;5.442;2023-04-03T14:22:44;1.50;;;0.60;;
71965;SDS011;59836;52.132;5.442;2023-04-03T14:25:11;1.92;;;0.57;;
71965;SDS011;59836;52.132;5.442;2023-04-03T14:27:39;1.55;;;0.75;;
71965;SDS011;59836;52.132;5.442;2023-04-03T14:30:09;1.50;;;0.75;;
71965;SDS011;59836;52.132;5.442;2023-04-03T14:32:40;1.67;;;0.80;;
71965;SDS011;59836;52.132;5.442;2023-04-03T14:35:07;1.47;;;0.63;;
71965;SDS011;59836;52.132;5.442;2023-04-03T14:37:34;2.85;;;0.52;;
71965;SDS011;59836;52.132;5.442;2023-04-03T14:40:01;2.80;;;0.77;;
71965;SDS011;59836;52.132;5.442;2023-04-03T14:42:31;1.88;;;0.60;;
71965;SDS011;59836;52.132;5.442;2023-04-03T14:45:00;3.28;;;0.70;;
71965;SDS011;59836;52.132;5.442;2023-04-03T14:47:29;1.33;;;0.50;;
71965;SDS011;59836;52.132;5.442;2023-04-03T14:49:59;1.13;;;0.50;;
71965;SDS011;59836;52.132;5.442;2023-04-03T14:52:29;1.70;;;0.68;;
71965;SDS011;59836;52.132;5.442;2023-04-03T14:54:58;1.85;;;0.73;;
71965;SDS011;59836;52.132;5.442;2023-04-03T14:57:25;3.45;;;0.80;;
71965;SDS011;59836;52.132;5.442;2023-04-03T14:59:54;3.83;;;0.97;;
71965;SDS011;59836;52.132;5.442;2023-04-03T15:04:59;1.85;;;1.00;;
71965;SDS011;59836;52.132;5.442;2023-04-03T15:07:27;1.58;;;1.13;;
71965;SDS011;59836;52.132;5.442;2023-04-03T15:09:56;2.08;;;0.95;;
71965;SDS011;59836;52.132;5.442;2023-04-03T15:12:23;1.60;;;0.50;;
71965;SDS011;59836;52.132;5.442;2023-04-03T15:14:50;2.47;;;0.80;;
71965;SDS011;59836;52.132;5.442;2023-04-03T15:17:27;2.00;;;0.77;;
71965;SDS011;59836;52.132;5.442;2023-04-03T15:19:53;2.33;;;0.77;;
71965;SDS011;59836;52.132;5.442;2023-04-03T15:22:19;1.70;;;0.55;;
71965;SDS011;59836;52.132;5.442;2023-04-03T15:24:46;1.87;;;0.90;;
71965;SDS011;59836;52.132;5.442;2023-04-03T15:27:13;3.65;;;0.80;;
71965;SDS011;59836;52.132;5.442;2023-04-03T15:29:40;3.97;;;1.52;;
71965;SDS011;59836;52.132;5.442;2023-04-03T15:32:08;3.15;;;0.80;;
71965;SDS011;59836;52.132;5.442;2023-04-03T15:34:36;2.22;;;1.00;;
71965;SDS011;59836;52.132;5.442;2023-04-03T15:37:02;2.40;;;0.73;;
71965;SDS011;59836;52.132;5.442;2023-04-03T15:39:29;2.72;;;0.68;;
71965;SDS011;59836;52.132;5.442;2023-04-03T15:41:55;5.40;;;1.02;;
71965;SDS011;59836;52.132;5.442;2023-04-03T15:44:25;3.08;;;0.90;;
71965;SDS011;59836;52.132;5.442;2023-04-03T15:46:52;3.42;;;0.90;;
71965;SDS011;59836;52.132;5.442;2023-04-03T15:49:18;1.43;;;0.50;;
71965;SDS011;59836;52.132;5.442;2023-04-03T15:51:47;3.92;;;0.70;;
71965;SDS011;59836;52.132;5.442;2023-04-03T15:54:13;1.80;;;0.70;;
71965;SDS011;59836;52.132;5.442;2023-04-03T15:56:42;6.78;;;1.00;;
71965;SDS011;59836;52.132;5.442;2023-04-03T15:59:08;1.42;;;0.75;;
71965;SDS011;59836;52.132;5.442;2023-04-03T16:01:36;3.27;;;0.80;;
71965;SDS011;59836;52.132;5.442;2023-04-03T16:06:44;2.30;;;0.90;;
71965;SDS011;59836;52.132;5.442;2023-04-03T16:09:17;1.73;;;0.80;;
71965;SDS011;59836;52.132;5.442;2023-04-03T16:19:35;1.92;;;0.90;;
71965;SDS011;59836;52.132;5.442;2023-04-03T16:22:03;2.75;;;0.85;;
71965;SDS011;59836;52.132;5.442;2023-04-03T16:27:31;4.00;;;1.23;;
71965;SDS011;59836;52.132;5.442;2023-04-03T16:30:09;2.17;;;0.73;;
71965;SDS011;59836;52.132;5.442;2023-04-03T16:32:45;1.92;;;0.88;;
71965;SDS011;59836;52.132;5.442;2023-04-03T16:35:29;3.28;;;1.00;;
71965;SDS011;59836;52.132;5.442;2023-04-03T16:40:32;1.77;;;0.60;;
71965;SDS011;59836;52.132;5.442;2023-04-03T16:43:01;1.88;;;0.85;;
71965;SDS011;59836;52.132;5.442;2023-04-03T16:45:39;1.63;;;0.70;;
71965;SDS011;59836;52.132;5.442;2023-04-03T16:54:04;1.30;;;0.50;;
71965;SDS011;59836;52.132;5.442;2023-04-03T16:56:44;1.90;;;0.80;;